sensor_id;sensor_type;location;lat;lon;timestamp;pressure;altitude;pressure_sealevel;temperature;humidity
68822;BME280;55834;50.870;4.606;2023-08-08T00:00:47;100946.25;;;13.25;56.12
68822;BME280;55834;50.870;4.606;2023-08-08T00:03:13;100944.56;;;13.22;56.82
68822;BME280;55834;50.870;4.606;2023-08-08T00:05:38;100944.13;;;13.35;55.54
68822;BME280;55834;50.870;4.606;2023-08-08T00:08:04;100939.38;;;13.68;55.23
68822;BME280;55834;50.870;4.606;2023-08-08T00:10:30;100946.88;;;13.57;55.86
68822;BME280;55834;50.870;4.606;2023-08-08T00:12:55;100941.38;;;13.38;55.16
68822;BME280;55834;50.870;4.606;2023-08-08T00:15:20;100951.75;;;13.19;57.09
68822;BME280;55834;50.870;4.606;2023-08-08T00:17:46;100943.91;;;13.41;56.71
68822;BME280;55834;50.870;4.606;2023-08-08T00:20:11;100940.44;;;13.39;56.14
68822;BME280;55834;50.870;4.606;2023-08-08T00:22:37;100943.53;;;13.26;56.32
68822;BME280;55834;50.870;4.606;2023-08-08T00:25:02;100934.66;;;13.27;56.58
68822;BME280;55834;50.870;4.606;2023-08-08T00:27:28;100936.91;;;13.15;56.76
68822;BME280;55834;50.870;4.606;2023-08-08T00:29:54;100928.03;;;13.16;57.67
68822;BME280;55834;50.870;4.606;2023-08-08T00:32:20;100934.72;;;13.26;57.29
68822;BME280;55834;50.870;4.606;2023-08-08T00:34:45;100939.00;;;13.05;56.77
68822;BME280;55834;50.870;4.606;2023-08-08T00:37:10;100930.06;;;13.07;57.64
68822;BME280;55834;50.870;4.606;2023-08-08T00:39:36;100923.47;;;12.69;59.24
68822;BME280;55834;50.870;4.606;2023-08-08T00:42:02;100924.50;;;12.65;60.28
68822;BME280;55834;50.870;4.606;2023-08-08T00:44:27;100923.00;;;12.56;58.93
68822;BME280;55834;50.870;4.606;2023-08-08T00:46:53;100920.91;;;12.13;60.09
68822;BME280;55834;50.870;4.606;2023-08-08T00:49:18;100924.28;;;12.71;59.40
68822;BME280;55834;50.870;4.606;2023-08-08T00:51:44;100917.75;;;13.06;58.16
68822;BME280;55834;50.870;4.606;2023-08-08T00:54:10;100921.22;;;12.83;58.30
68822;BME280;55834;50.870;4.606;2023-08-08T00:56:35;100913.03;;;13.15;58.97
68822;BME280;55834;50.870;4.606;2023-08-08T00:59:02;100922.69;;;12.92;58.70
68822;BME280;55834;50.870;4.606;2023-08-08T01:01:28;100921.09;;;12.86;59.36
68822;BME280;55834;50.870;4.606;2023-08-08T01:03:53;100915.28;;;12.77;59.13
68822;BME280;55834;50.870;4.606;2023-08-08T01:07:23;100915.00;;;12.31;60.59
68822;BME280;55834;50.870;4.606;2023-08-08T01:09:31;100918.28;;;11.83;63.25
68822;BME280;55834;50.870;4.606;2023-08-08T01:11:59;100909.19;;;12.47;61.31
68822;BME280;55834;50.870;4.606;2023-08-08T01:14:28;100904.72;;;12.75;60.58
68822;BME280;55834;50.870;4.606;2023-08-08T01:16:55;100912.59;;;12.24;60.84
68822;BME280;55834;50.870;4.606;2023-08-08T01:19:27;100902.22;;;12.17;62.42
68822;BME280;55834;50.870;4.606;2023-08-08T01:21:53;100902.28;;;12.42;61.41
68822;BME280;55834;50.870;4.606;2023-08-08T01:24:22;100902.28;;;11.88;62.97
68822;BME280;55834;50.870;4.606;2023-08-08T01:26:49;100906.53;;;12.20;62.12
68822;BME280;55834;50.870;4.606;2023-08-08T01:29:14;100907.09;;;12.30;62.79
68822;BME280;55834;50.870;4.606;2023-08-08T01:31:40;100902.06;;;12.49;62.28
68822;BME280;55834;50.870;4.606;2023-08-08T01:34:05;100895.69;;;12.54;60.80
68822;BME280;55834;50.870;4.606;2023-08-08T01:36:55;100902.91;;;11.96;62.97
68822;BME280;55834;50.870;4.606;2023-08-08T01:39:25;100898.03;;;12.10;63.06
68822;BME280;55834;50.870;4.606;2023-08-08T01:41:53;100893.06;;;12.54;62.10
68822;BME280;55834;50.870;4.606;2023-08-08T01:44:19;100889.16;;;12.39;62.39
68822;BME280;55834;50.870;4.606;2023-08-08T01:46:46;100903.25;;;11.24;65.86
68822;BME280;55834;50.870;4.606;2023-08-08T01:49:12;100900.34;;;11.65;64.57
68822;BME280;55834;50.870;4.606;2023-08-08T01:51:37;100886.81;;;12.30;64.44
68822;BME280;55834;50.870;4.606;2023-08-08T01:54:03;100893.03;;;12.01;62.69
68822;BME280;55834;50.870;4.606;2023-08-08T01:56:28;100885.63;;;12.39;62.84
68822;BME280;55834;50.870;4.606;2023-08-08T01:58:54;100892.56;;;12.16;62.71
68822;BME280;55834;50.870;4.606;2023-08-08T02:01:19;100898.44;;;11.70;63.76
68822;BME280;55834;50.870;4.606;2023-08-08T02:03:44;100886.97;;;11.97;64.36
68822;BME280;55834;50.870;4.606;2023-08-08T02:06:10;100879.41;;;12.40;63.01
68822;BME280;55834;50.870;4.606;2023-08-08T02:08:35;100877.97;;;12.83;61.43
68822;BME280;55834;50.870;4.606;2023-08-08T02:11:00;100881.72;;;12.76;60.93
68822;BME280;55834;50.870;4.606;2023-08-08T02:13:26;100887.06;;;12.99;60.91
68822;BME280;55834;50.870;4.606;2023-08-08T02:15:51;100877.06;;;13.07;60.83
68822;BME280;55834;50.870;4.606;2023-08-08T02:18:18;100883.97;;;12.63;61.22
68822;BME280;55834;50.870;4.606;2023-08-08T02:20:43;100872.06;;;12.48;63.21
68822;BME280;55834;50.870;4.606;2023-08-08T02:23:09;100863.44;;;12.16;63.53
68822;BME280;55834;50.870;4.606;2023-08-08T02:25:34;100870.00;;;12.58;63.36
68822;BME280;55834;50.870;4.606;2023-08-08T02:28:00;100871.56;;;12.63;61.53
68822;BME280;55834;50.870;4.606;2023-08-08T02:30:25;100873.44;;;12.85;61.06
68822;BME280;55834;50.870;4.606;2023-08-08T02:32:51;100878.84;;;12.57;62.08
68822;BME280;55834;50.870;4.606;2023-08-08T02:35:16;100865.97;;;12.46;62.65
68822;BME280;55834;50.870;4.606;2023-08-08T02:37:42;100866.09;;;12.41;62.10
68822;BME280;55834;50.870;4.606;2023-08-08T02:40:08;100865.31;;;12.39;62.87
68822;BME280;55834;50.870;4.606;2023-08-08T02:42:34;100867.56;;;11.99;64.16
68822;BME280;55834;50.870;4.606;2023-08-08T02:45:00;100870.97;;;12.02;64.25
68822;BME280;55834;50.870;4.606;2023-08-08T02:47:25;100869.63;;;11.29;66.38
68822;BME280;55834;50.870;4.606;2023-08-08T02:49:50;100868.75;;;11.88;64.74
68822;BME280;55834;50.870;4.606;2023-08-08T02:52:16;100868.84;;;12.13;64.25
68822;BME280;55834;50.870;4.606;2023-08-08T02:54:41;100858.06;;;12.45;62.64
68822;BME280;55834;50.870;4.606;2023-08-08T02:57:07;100853.84;;;11.86;64.10
68822;BME280;55834;50.870;4.606;2023-08-08T02:59:32;100854.75;;;12.38;63.37
68822;BME280;55834;50.870;4.606;2023-08-08T03:01:57;100855.91;;;12.04;62.86
68822;BME280;55834;50.870;4.606;2023-08-08T03:04:23;100866.81;;;12.22;64.71
68822;BME280;55834;50.870;4.606;2023-08-08T03:06:48;100862.09;;;12.56;63.44
68822;BME280;55834;50.870;4.606;2023-08-08T03:09:14;100860.16;;;12.61;61.88
68822;BME280;55834;50.870;4.606;2023-08-08T03:11:39;100860.03;;;12.64;61.36
68822;BME280;55834;50.870;4.606;2023-08-08T03:14:07;100856.16;;;12.75;60.73
68822;BME280;55834;50.870;4.606;2023-08-08T03:16:33;100856.78;;;12.30;62.41
68822;BME280;55834;50.870;4.606;2023-08-08T03:18:59;100862.00;;;12.06;63.59
68822;BME280;55834;50.870;4.606;2023-08-08T03:21:24;100863.53;;;12.67;62.80
68822;BME280;55834;50.870;4.606;2023-08-08T03:23:49;100858.78;;;12.50;60.77
68822;BME280;55834;50.870;4.606;2023-08-08T03:26:15;100861.69;;;12.69;60.70
68822;BME280;55834;50.870;4.606;2023-08-08T03:28:40;100853.66;;;12.45;62.54
68822;BME280;55834;50.870;4.606;2023-08-08T03:31:05;100852.47;;;12.27;63.10
68822;BME280;55834;50.870;4.606;2023-08-08T03:33:31;100851.44;;;12.59;61.69
68822;BME280;55834;50.870;4.606;2023-08-08T03:35:57;100851.38;;;12.08;62.66
68822;BME280;55834;50.870;4.606;2023-08-08T03:38:22;100847.44;;;11.93;62.94
68822;BME280;55834;50.870;4.606;2023-08-08T03:40:47;100851.88;;;12.19;63.40
68822;BME280;55834;50.870;4.606;2023-08-08T03:43:13;100850.41;;;12.37;62.85
68822;BME280;55834;50.870;4.606;2023-08-08T03:45:38;100854.53;;;12.19;62.26
68822;BME280;55834;50.870;4.606;2023-08-08T03:48:04;100847.69;;;12.12;62.23
68822;BME280;55834;50.870;4.606;2023-08-08T03:50:29;100854.31;;;12.25;63.21
68822;BME280;55834;50.870;4.606;2023-08-08T03:52:55;100849.38;;;11.88;63.57
68822;BME280;55834;50.870;4.606;2023-08-08T03:55:20;100853.72;;;11.89;63.73
68822;BME280;55834;50.870;4.606;2023-08-08T03:57:46;100852.63;;;11.96;64.20
68822;BME280;55834;50.870;4.606;2023-08-08T04:00:11;100847.56;;;12.16;62.81
68822;BME280;55834;50.870;4.606;2023-08-08T04:02:37;100863.03;;;11.74;64.26
68822;BME280;55834;50.870;4.606;2023-08-08T04:05:02;100848.44;;;12.15;63.78
68822;BME280;55834;50.870;4.606;2023-08-08T04:07:28;100854.88;;;12.08;62.54
68822;BME280;55834;50.870;4.606;2023-08-08T04:09:53;100857.06;;;11.95;63.89
68822;BME280;55834;50.870;4.606;2023-08-08T04:12:18;100844.44;;;12.04;64.09
68822;BME280;55834;50.870;4.606;2023-08-08T04:14:44;100843.84;;;12.22;62.94
68822;BME280;55834;50.870;4.606;2023-08-08T04:17:09;100847.91;;;12.06;63.52
68822;BME280;55834;50.870;4.606;2023-08-08T04:19:35;100841.84;;;12.02;63.50
68822;BME280;55834;50.870;4.606;2023-08-08T04:22:00;100846.44;;;11.69;64.84
68822;BME280;55834;50.870;4.606;2023-08-08T04:24:25;100844.00;;;11.89;64.35
68822;BME280;55834;50.870;4.606;2023-08-08T04:26:51;100838.16;;;12.06;64.34
68822;BME280;55834;50.870;4.606;2023-08-08T04:29:16;100825.13;;;12.02;62.98
68822;BME280;55834;50.870;4.606;2023-08-08T04:31:41;100836.47;;;12.05;63.73
68822;BME280;55834;50.870;4.606;2023-08-08T04:34:07;100829.63;;;12.25;63.49
68822;BME280;55834;50.870;4.606;2023-08-08T04:36:32;100830.19;;;11.81;64.01
68822;BME280;55834;50.870;4.606;2023-08-08T04:38:58;100827.97;;;11.67;65.39
68822;BME280;55834;50.870;4.606;2023-08-08T04:41:23;100835.22;;;11.31;65.99
68822;BME280;55834;50.870;4.606;2023-08-08T04:43:49;100842.44;;;11.84;66.13
68822;BME280;55834;50.870;4.606;2023-08-08T04:46:14;100834.22;;;12.19;64.65
68822;BME280;55834;50.870;4.606;2023-08-08T04:48:40;100844.13;;;12.39;63.34
68822;BME280;55834;50.870;4.606;2023-08-08T04:51:05;100843.09;;;11.64;65.18
68822;BME280;55834;50.870;4.606;2023-08-08T04:53:31;100837.88;;;12.15;65.74
68822;BME280;55834;50.870;4.606;2023-08-08T04:55:56;100831.69;;;12.41;63.69
68822;BME280;55834;50.870;4.606;2023-08-08T04:58:22;100834.22;;;11.93;65.52
68822;BME280;55834;50.870;4.606;2023-08-08T05:00:47;100835.50;;;12.33;64.28
68822;BME280;55834;50.870;4.606;2023-08-08T05:03:13;100836.31;;;12.61;63.06
68822;BME280;55834;50.870;4.606;2023-08-08T05:05:38;100838.44;;;12.50;63.55
68822;BME280;55834;50.870;4.606;2023-08-08T05:08:03;100835.66;;;12.55;63.74
68822;BME280;55834;50.870;4.606;2023-08-08T05:10:29;100830.50;;;12.25;63.78
68822;BME280;55834;50.870;4.606;2023-08-08T05:12:56;100833.94;;;12.27;63.55
68822;BME280;55834;50.870;4.606;2023-08-08T05:15:22;100833.97;;;12.52;63.34
68822;BME280;55834;50.870;4.606;2023-08-08T05:17:47;100835.50;;;12.33;63.74
68822;BME280;55834;50.870;4.606;2023-08-08T05:20:13;100831.47;;;11.96;64.73
68822;BME280;55834;50.870;4.606;2023-08-08T05:22:38;100839.00;;;12.08;65.85
68822;BME280;55834;50.870;4.606;2023-08-08T05:25:04;100837.06;;;11.87;65.73
68822;BME280;55834;50.870;4.606;2023-08-08T05:27:30;100837.09;;;12.12;65.20
68822;BME280;55834;50.870;4.606;2023-08-08T05:29:55;100843.00;;;12.47;65.36
68822;BME280;55834;50.870;4.606;2023-08-08T05:32:21;100842.72;;;12.54;63.72
68822;BME280;55834;50.870;4.606;2023-08-08T05:34:46;100843.84;;;12.47;64.67
68822;BME280;55834;50.870;4.606;2023-08-08T05:37:12;100845.94;;;12.89;63.12
68822;BME280;55834;50.870;4.606;2023-08-08T05:39:37;100847.31;;;12.99;63.43
68822;BME280;55834;50.870;4.606;2023-08-08T05:42:02;100846.06;;;13.33;61.66
68822;BME280;55834;50.870;4.606;2023-08-08T05:44:28;100848.44;;;13.41;61.94
68822;BME280;55834;50.870;4.606;2023-08-08T05:46:53;100854.25;;;13.27;62.23
68822;BME280;55834;50.870;4.606;2023-08-08T05:49:19;100855.16;;;13.02;61.97
68822;BME280;55834;50.870;4.606;2023-08-08T05:51:44;100857.41;;;12.90;62.75
68822;BME280;55834;50.870;4.606;2023-08-08T05:54:10;100864.38;;;12.67;63.86
68822;BME280;55834;50.870;4.606;2023-08-08T05:56:37;100853.50;;;13.23;63.70
68822;BME280;55834;50.870;4.606;2023-08-08T05:59:03;100855.22;;;13.71;61.29
68822;BME280;55834;50.870;4.606;2023-08-08T06:01:29;100854.97;;;13.32;61.95
68822;BME280;55834;50.870;4.606;2023-08-08T06:03:55;100854.66;;;13.85;61.51
68822;BME280;55834;50.870;4.606;2023-08-08T06:06:21;100857.56;;;13.79;60.98
68822;BME280;55834;50.870;4.606;2023-08-08T06:08:46;100869.31;;;13.03;61.45
68822;BME280;55834;50.870;4.606;2023-08-08T06:11:12;100866.59;;;13.28;61.84
68822;BME280;55834;50.870;4.606;2023-08-08T06:13:37;100876.75;;;12.67;63.28
68822;BME280;55834;50.870;4.606;2023-08-08T06:16:03;100869.03;;;12.60;63.24
68822;BME280;55834;50.870;4.606;2023-08-08T06:18:32;100864.41;;;13.63;62.42
68822;BME280;55834;50.870;4.606;2023-08-08T06:20:58;100868.59;;;13.45;61.09
68822;BME280;55834;50.870;4.606;2023-08-08T06:23:23;100870.50;;;13.18;62.12
68822;BME280;55834;50.870;4.606;2023-08-08T06:25:49;100868.34;;;13.29;62.91
68822;BME280;55834;50.870;4.606;2023-08-08T06:28:14;100859.78;;;13.68;60.22
68822;BME280;55834;50.870;4.606;2023-08-08T06:30:39;100866.53;;;13.98;60.27
68822;BME280;55834;50.870;4.606;2023-08-08T06:33:05;100865.91;;;14.34;59.53
68822;BME280;55834;50.870;4.606;2023-08-08T06:35:30;100867.03;;;13.39;61.11
68822;BME280;55834;50.870;4.606;2023-08-08T06:37:56;100864.03;;;14.16;61.59
68822;BME280;55834;50.870;4.606;2023-08-08T06:40:21;100864.78;;;14.82;59.14
68822;BME280;55834;50.870;4.606;2023-08-08T06:42:47;100865.53;;;14.01;59.58
68822;BME280;55834;50.870;4.606;2023-08-08T06:45:12;100862.13;;;14.82;58.22
68822;BME280;55834;50.870;4.606;2023-08-08T06:47:38;100861.75;;;15.29;57.41
68822;BME280;55834;50.870;4.606;2023-08-08T06:50:03;100868.38;;;14.18;57.86
68822;BME280;55834;50.870;4.606;2023-08-08T06:52:30;100860.97;;;14.47;58.86
68822;BME280;55834;50.870;4.606;2023-08-08T06:54:55;100866.69;;;13.94;59.68
68822;BME280;55834;50.870;4.606;2023-08-08T06:57:21;100868.50;;;14.15;58.27
68822;BME280;55834;50.870;4.606;2023-08-08T06:59:46;100871.63;;;14.88;58.37
68822;BME280;55834;50.870;4.606;2023-08-08T07:02:16;100866.91;;;15.34;56.43
68822;BME280;55834;50.870;4.606;2023-08-08T07:04:41;100863.25;;;15.16;55.21
68822;BME280;55834;50.870;4.606;2023-08-08T07:07:07;100860.59;;;14.77;56.99
68822;BME280;55834;50.870;4.606;2023-08-08T07:09:33;100860.22;;;15.63;56.25
68822;BME280;55834;50.870;4.606;2023-08-08T07:11:58;100855.16;;;16.12;55.22
68822;BME280;55834;50.870;4.606;2023-08-08T07:14:24;100854.25;;;15.58;54.80
68822;BME280;55834;50.870;4.606;2023-08-08T07:16:49;100852.25;;;15.63;55.36
68822;BME280;55834;50.870;4.606;2023-08-08T07:19:14;100849.97;;;14.77;57.60
68822;BME280;55834;50.870;4.606;2023-08-08T07:21:40;100844.34;;;15.03;56.50
68822;BME280;55834;50.870;4.606;2023-08-08T07:24:06;100848.22;;;15.54;55.87
68822;BME280;55834;50.870;4.606;2023-08-08T07:26:32;100852.50;;;14.59;57.21
68822;BME280;55834;50.870;4.606;2023-08-08T07:28:57;100853.97;;;15.06;56.49
68822;BME280;55834;50.870;4.606;2023-08-08T07:31:22;100849.16;;;14.75;57.81
68822;BME280;55834;50.870;4.606;2023-08-08T07:33:48;100848.47;;;15.67;55.71
68822;BME280;55834;50.870;4.606;2023-08-08T07:36:13;100848.63;;;15.64;55.55
68822;BME280;55834;50.870;4.606;2023-08-08T07:38:39;100850.00;;;15.35;55.44
68822;BME280;55834;50.870;4.606;2023-08-08T07:41:04;100853.22;;;15.79;54.26
68822;BME280;55834;50.870;4.606;2023-08-08T07:43:30;100860.59;;;15.16;54.25
68822;BME280;55834;50.870;4.606;2023-08-08T07:45:55;100858.63;;;15.78;54.68
68822;BME280;55834;50.870;4.606;2023-08-08T07:48:20;100856.53;;;15.66;54.06
68822;BME280;55834;50.870;4.606;2023-08-08T07:50:46;100844.09;;;15.47;54.41
68822;BME280;55834;50.870;4.606;2023-08-08T07:53:11;100851.94;;;15.31;55.50
68822;BME280;55834;50.870;4.606;2023-08-08T07:55:36;100842.66;;;15.59;55.40
68822;BME280;55834;50.870;4.606;2023-08-08T07:58:02;100841.97;;;15.92;54.31
68822;BME280;55834;50.870;4.606;2023-08-08T08:00:27;100835.22;;;15.85;54.05
68822;BME280;55834;50.870;4.606;2023-08-08T08:02:53;100849.63;;;15.62;54.86
68822;BME280;55834;50.870;4.606;2023-08-08T08:05:18;100839.88;;;15.98;54.75
68822;BME280;55834;50.870;4.606;2023-08-08T08:07:44;100842.28;;;16.39;53.16
68822;BME280;55834;50.870;4.606;2023-08-08T08:10:11;100843.28;;;16.37;53.02
68822;BME280;55834;50.870;4.606;2023-08-08T08:12:39;100854.41;;;14.56;55.55
68822;BME280;55834;50.870;4.606;2023-08-08T08:15:05;100845.53;;;15.17;56.10
68822;BME280;55834;50.870;4.606;2023-08-08T08:17:31;100845.41;;;15.57;54.96
68822;BME280;55834;50.870;4.606;2023-08-08T08:19:56;100843.66;;;15.75;55.09
68822;BME280;55834;50.870;4.606;2023-08-08T08:22:22;100841.97;;;15.92;54.88
68822;BME280;55834;50.870;4.606;2023-08-08T08:24:47;100837.91;;;16.02;54.04
68822;BME280;55834;50.870;4.606;2023-08-08T08:27:13;100845.97;;;15.64;54.29
68822;BME280;55834;50.870;4.606;2023-08-08T08:29:39;100842.09;;;15.52;54.13
68822;BME280;55834;50.870;4.606;2023-08-08T08:32:04;100847.47;;;15.70;54.14
68822;BME280;55834;50.870;4.606;2023-08-08T08:34:30;100847.19;;;15.57;54.32
68822;BME280;55834;50.870;4.606;2023-08-08T08:36:55;100853.16;;;15.81;54.01
68822;BME280;55834;50.870;4.606;2023-08-08T08:39:21;100852.13;;;15.84;54.59
68822;BME280;55834;50.870;4.606;2023-08-08T08:41:49;100853.44;;;16.11;53.80
68822;BME280;55834;50.870;4.606;2023-08-08T08:44:20;100866.34;;;16.01;53.66
68822;BME280;55834;50.870;4.606;2023-08-08T08:46:48;100866.03;;;15.52;53.72
68822;BME280;55834;50.870;4.606;2023-08-08T08:49:17;100853.78;;;16.22;53.20
68822;BME280;55834;50.870;4.606;2023-08-08T08:51:43;100857.56;;;16.18;53.13
68822;BME280;55834;50.870;4.606;2023-08-08T08:54:09;100854.78;;;16.72;51.86
68822;BME280;55834;50.870;4.606;2023-08-08T08:56:35;100851.81;;;16.61;50.74
68822;BME280;55834;50.870;4.606;2023-08-08T08:59:01;100856.91;;;17.00;51.52
68822;BME280;55834;50.870;4.606;2023-08-08T09:01:27;100848.81;;;16.15;52.32
68822;BME280;55834;50.870;4.606;2023-08-08T09:03:53;100853.19;;;15.04;55.12
68822;BME280;55834;50.870;4.606;2023-08-08T09:06:19;100848.94;;;16.31;53.48
68822;BME280;55834;50.870;4.606;2023-08-08T09:08:46;100850.34;;;16.55;52.25
68822;BME280;55834;50.870;4.606;2023-08-08T09:11:12;100847.69;;;16.38;51.61
68822;BME280;55834;50.870;4.606;2023-08-08T09:13:39;100852.88;;;16.91;52.27
68822;BME280;55834;50.870;4.606;2023-08-08T09:16:06;100845.44;;;17.63;50.97
68822;BME280;55834;50.870;4.606;2023-08-08T09:18:32;100855.13;;;16.49;50.31
68822;BME280;55834;50.870;4.606;2023-08-08T09:20:58;100851.03;;;15.12;54.05
68822;BME280;55834;50.870;4.606;2023-08-08T09:23:23;100853.31;;;16.32;53.44
68822;BME280;55834;50.870;4.606;2023-08-08T09:25:49;100855.81;;;16.52;51.36
68822;BME280;55834;50.870;4.606;2023-08-08T09:28:15;100849.84;;;16.99;51.45
68822;BME280;55834;50.870;4.606;2023-08-08T09:30:41;100856.09;;;16.11;50.07
68822;BME280;55834;50.870;4.606;2023-08-08T09:33:07;100854.88;;;16.88;49.91
68822;BME280;55834;50.870;4.606;2023-08-08T09:35:33;100856.28;;;17.28;50.02
68822;BME280;55834;50.870;4.606;2023-08-08T09:37:59;100856.28;;;17.44;49.78
68822;BME280;55834;50.870;4.606;2023-08-08T09:40:24;100849.41;;;18.03;48.09
68822;BME280;55834;50.870;4.606;2023-08-08T09:42:53;100854.50;;;17.92;47.98
68822;BME280;55834;50.870;4.606;2023-08-08T09:45:18;100874.63;;;18.14;48.46
68822;BME280;55834;50.870;4.606;2023-08-08T09:47:44;100871.47;;;17.91;47.24
68822;BME280;55834;50.870;4.606;2023-08-08T09:50:09;100861.44;;;18.11;46.74
68822;BME280;55834;50.870;4.606;2023-08-08T09:52:35;100878.25;;;17.49;49.20
68822;BME280;55834;50.870;4.606;2023-08-08T09:55:04;100870.00;;;17.05;49.34
68822;BME280;55834;50.870;4.606;2023-08-08T09:57:30;100870.94;;;17.37;46.97
68822;BME280;55834;50.870;4.606;2023-08-08T09:59:55;100883.69;;;17.64;46.94
68822;BME280;55834;50.870;4.606;2023-08-08T10:02:21;100881.19;;;17.61;47.84
68822;BME280;55834;50.870;4.606;2023-08-08T10:04:47;100878.16;;;15.96;49.50
68822;BME280;55834;50.870;4.606;2023-08-08T10:07:12;100868.44;;;16.83;48.12
68822;BME280;55834;50.870;4.606;2023-08-08T10:09:38;100868.28;;;16.17;49.75
68822;BME280;55834;50.870;4.606;2023-08-08T10:12:06;100860.22;;;16.71;49.42
68822;BME280;55834;50.870;4.606;2023-08-08T10:14:34;100863.84;;;17.20;48.78
68822;BME280;55834;50.870;4.606;2023-08-08T10:17:02;100871.34;;;17.29;48.30
68822;BME280;55834;50.870;4.606;2023-08-08T10:19:29;100875.50;;;17.02;48.07
68822;BME280;55834;50.870;4.606;2023-08-08T10:22:02;100875.66;;;16.64;47.15
68822;BME280;55834;50.870;4.606;2023-08-08T10:24:34;100877.94;;;16.72;48.03
68822;BME280;55834;50.870;4.606;2023-08-08T10:27:00;100878.88;;;16.71;48.56
68822;BME280;55834;50.870;4.606;2023-08-08T10:29:28;100872.41;;;17.09;46.72
68822;BME280;55834;50.870;4.606;2023-08-08T10:32:05;100870.94;;;16.17;48.03
68822;BME280;55834;50.870;4.606;2023-08-08T10:34:42;100863.66;;;16.38;47.81
68822;BME280;55834;50.870;4.606;2023-08-08T10:37:20;100864.47;;;16.04;49.82
68822;BME280;55834;50.870;4.606;2023-08-08T10:39:54;100862.66;;;16.58;49.39
68822;BME280;55834;50.870;4.606;2023-08-08T10:42:22;100863.66;;;17.23;47.35
68822;BME280;55834;50.870;4.606;2023-08-08T10:44:55;100859.47;;;17.19;48.63
68822;BME280;55834;50.870;4.606;2023-08-08T10:47:34;100854.59;;;16.42;47.33
68822;BME280;55834;50.870;4.606;2023-08-08T10:50:09;100857.09;;;16.62;47.90
68822;BME280;55834;50.870;4.606;2023-08-08T10:55:30;100855.44;;;17.44;46.84
68822;BME280;55834;50.870;4.606;2023-08-08T10:58:07;100838.66;;;17.57;45.76
68822;BME280;55834;50.870;4.606;2023-08-08T11:00:34;100845.16;;;17.36;46.22
68822;BME280;55834;50.870;4.606;2023-08-08T11:03:02;100836.41;;;17.50;46.23
68822;BME280;55834;50.870;4.606;2023-08-08T11:05:30;100842.56;;;17.19;46.04
68822;BME280;55834;50.870;4.606;2023-08-08T11:07:56;100855.22;;;16.64;45.60
68822;BME280;55834;50.870;4.606;2023-08-08T11:10:22;100854.94;;;16.86;46.31
68822;BME280;55834;50.870;4.606;2023-08-08T11:12:56;100843.84;;;16.26;45.75
68822;BME280;55834;50.870;4.606;2023-08-08T11:15:21;100863.03;;;15.60;48.23
68822;BME280;55834;50.870;4.606;2023-08-08T11:17:49;100854.31;;;15.75;46.69
68822;BME280;55834;50.870;4.606;2023-08-08T11:20:15;100848.47;;;16.57;46.60
68822;BME280;55834;50.870;4.606;2023-08-08T11:22:40;100849.31;;;16.75;45.55
68822;BME280;55834;50.870;4.606;2023-08-08T11:25:06;100851.56;;;16.13;47.43
68822;BME280;55834;50.870;4.606;2023-08-08T11:27:33;100851.13;;;16.22;46.47
68822;BME280;55834;50.870;4.606;2023-08-08T11:29:59;100842.91;;;16.95;45.32
68822;BME280;55834;50.870;4.606;2023-08-08T11:32:27;100846.41;;;16.97;45.31
68822;BME280;55834;50.870;4.606;2023-08-08T11:34:56;100847.47;;;17.10;45.34
68822;BME280;55834;50.870;4.606;2023-08-08T11:37:21;100850.81;;;16.46;45.58
68822;BME280;55834;50.870;4.606;2023-08-08T11:39:47;100852.75;;;17.28;44.35
68822;BME280;55834;50.870;4.606;2023-08-08T11:42:13;100847.13;;;16.49;46.93
68822;BME280;55834;50.870;4.606;2023-08-08T11:44:39;100842.25;;;17.56;45.27
68822;BME280;55834;50.870;4.606;2023-08-08T11:47:14;100855.28;;;16.63;44.31
68822;BME280;55834;50.870;4.606;2023-08-08T11:49:41;100851.72;;;16.80;44.96
68822;BME280;55834;50.870;4.606;2023-08-08T11:52:07;100853.63;;;16.26;46.92
68822;BME280;55834;50.870;4.606;2023-08-08T11:54:33;100846.69;;;16.04;48.81
68822;BME280;55834;50.870;4.606;2023-08-08T11:57:01;100856.41;;;16.05;46.79
68822;BME280;55834;50.870;4.606;2023-08-08T11:59:26;100852.75;;;16.77;45.43
68822;BME280;55834;50.870;4.606;2023-08-08T12:01:52;100859.25;;;17.06;45.27
68822;BME280;55834;50.870;4.606;2023-08-08T12:04:20;100860.22;;;16.71;42.96
68822;BME280;55834;50.870;4.606;2023-08-08T12:06:45;100854.59;;;17.10;41.81
68822;BME280;55834;50.870;4.606;2023-08-08T12:09:12;100855.66;;;17.39;41.59
68822;BME280;55834;50.870;4.606;2023-08-08T12:11:40;100851.41;;;17.03;42.48
68822;BME280;55834;50.870;4.606;2023-08-08T12:14:07;100846.47;;;16.78;42.69
68822;BME280;55834;50.870;4.606;2023-08-08T12:16:37;100836.84;;;17.58;41.74
68822;BME280;55834;50.870;4.606;2023-08-08T12:19:07;100835.69;;;18.10;41.72
68822;BME280;55834;50.870;4.606;2023-08-08T12:21:32;100829.75;;;18.04;42.21
68822;BME280;55834;50.870;4.606;2023-08-08T12:23:58;100827.81;;;17.76;43.27
68822;BME280;55834;50.870;4.606;2023-08-08T12:26:23;100822.00;;;17.68;42.53
